sensor_id;sensor_type;location;lat;lon;timestamp;temperature;humidity
15969;DHT22;8085;53.472;9.794;2023-12-20T00:00:19;5.50;99.90
15969;DHT22;8085;53.472;9.794;2023-12-20T00:02:46;5.40;99.90
15969;DHT22;8085;53.472;9.794;2023-12-20T00:05:13;5.40;99.90
15969;DHT22;8085;53.472;9.794;2023-12-20T00:07:40;5.40;99.90
15969;DHT22;8085;53.472;9.794;2023-12-20T00:10:09;5.30;99.90
15969;DHT22;8085;53.472;9.794;2023-12-20T00:12:38;5.30;99.90
15969;DHT22;8085;53.472;9.794;2023-12-20T00:15:06;5.30;99.90
15969;DHT22;8085;53.472;9.794;2023-12-20T00:17:33;5.30;99.90
15969;DHT22;8085;53.472;9.794;2023-12-20T00:20:00;5.40;99.90
15969;DHT22;8085;53.472;9.794;2023-12-20T00:22:27;5.30;99.90
15969;DHT22;8085;53.472;9.794;2023-12-20T00:24:54;5.30;99.90
15969;DHT22;8085;53.472;9.794;2023-12-20T00:27:22;5.20;99.90
15969;DHT22;8085;53.472;9.794;2023-12-20T00:29:49;5.30;99.90
15969;DHT22;8085;53.472;9.794;2023-12-20T00:32:17;5.10;99.90
15969;DHT22;8085;53.472;9.794;2023-12-20T00:34:45;5.10;99.90
15969;DHT22;8085;53.472;9.794;2023-12-20T00:37:12;5.20;99.90
15969;DHT22;8085;53.472;9.794;2023-12-20T00:39:39;5.20;99.90
15969;DHT22;8085;53.472;9.794;2023-12-20T00:42:06;5.20;99.90
15969;DHT22;8085;53.472;9.794;2023-12-20T00:44:34;5.20;99.90
15969;DHT22;8085;53.472;9.794;2023-12-20T00:47:01;5.20;99.90
15969;DHT22;8085;53.472;9.794;2023-12-20T00:49:27;5.20;99.90
15969;DHT22;8085;53.472;9.794;2023-12-20T00:51:54;5.20;99.90
15969;DHT22;8085;53.472;9.794;2023-12-20T00:54:21;5.20;99.90
15969;DHT22;8085;53.472;9.794;2023-12-20T00:56:48;5.30;99.90
15969;DHT22;8085;53.472;9.794;2023-12-20T00:59:16;5.20;99.90
15969;DHT22;8085;53.472;9.794;2023-12-20T01:01:45;5.20;99.90
15969;DHT22;8085;53.472;9.794;2023-12-20T01:04:12;5.20;99.90
15969;DHT22;8085;53.472;9.794;2023-12-20T01:06:39;5.20;99.90
15969;DHT22;8085;53.472;9.794;2023-12-20T01:09:06;5.20;99.90
15969;DHT22;8085;53.472;9.794;2023-12-20T01:11:33;5.40;99.90
15969;DHT22;8085;53.472;9.794;2023-12-20T01:13:59;5.20;99.90
15969;DHT22;8085;53.472;9.794;2023-12-20T01:16:26;5.20;99.90
15969;DHT22;8085;53.472;9.794;2023-12-20T01:18:54;5.20;99.90
15969;DHT22;8085;53.472;9.794;2023-12-20T01:21:21;5.20;99.90
15969;DHT22;8085;53.472;9.794;2023-12-20T01:23:48;5.20;99.90
15969;DHT22;8085;53.472;9.794;2023-12-20T01:26:15;5.20;99.90
15969;DHT22;8085;53.472;9.794;2023-12-20T01:28:42;5.20;99.90
15969;DHT22;8085;53.472;9.794;2023-12-20T01:31:09;5.20;99.90
15969;DHT22;8085;53.472;9.794;2023-12-20T01:33:36;5.20;99.90
15969;DHT22;8085;53.472;9.794;2023-12-20T01:36:05;5.20;99.90
15969;DHT22;8085;53.472;9.794;2023-12-20T01:38:32;5.20;99.90
15969;DHT22;8085;53.472;9.794;2023-12-20T01:40:59;5.10;99.90
15969;DHT22;8085;53.472;9.794;2023-12-20T01:43:26;5.10;99.90
15969;DHT22;8085;53.472;9.794;2023-12-20T01:45:53;5.10;99.90
15969;DHT22;8085;53.472;9.794;2023-12-20T01:48:22;5.10;99.90
15969;DHT22;8085;53.472;9.794;2023-12-20T01:50:49;5.00;99.90
15969;DHT22;8085;53.472;9.794;2023-12-20T01:53:19;5.00;99.90
15969;DHT22;8085;53.472;9.794;2023-12-20T01:55:48;5.00;99.90
15969;DHT22;8085;53.472;9.794;2023-12-20T01:58:15;5.00;99.90
15969;DHT22;8085;53.472;9.794;2023-12-20T02:00:42;5.00;99.90
15969;DHT22;8085;53.472;9.794;2023-12-20T02:03:09;5.00;99.90
15969;DHT22;8085;53.472;9.794;2023-12-20T02:05:38;5.00;99.90
15969;DHT22;8085;53.472;9.794;2023-12-20T02:08:06;5.10;99.90
15969;DHT22;8085;53.472;9.794;2023-12-20T02:10:35;5.00;99.90
15969;DHT22;8085;53.472;9.794;2023-12-20T02:13:01;5.20;99.90
15969;DHT22;8085;53.472;9.794;2023-12-20T02:15:28;5.10;99.90
15969;DHT22;8085;53.472;9.794;2023-12-20T02:17:56;5.10;99.90
15969;DHT22;8085;53.472;9.794;2023-12-20T02:20:23;5.00;99.90
15969;DHT22;8085;53.472;9.794;2023-12-20T02:22:51;5.10;99.90
15969;DHT22;8085;53.472;9.794;2023-12-20T02:25:18;5.00;99.90
15969;DHT22;8085;53.472;9.794;2023-12-20T02:27:44;5.20;99.90
15969;DHT22;8085;53.472;9.794;2023-12-20T02:30:12;5.00;99.90
15969;DHT22;8085;53.472;9.794;2023-12-20T02:32:39;5.00;99.90
15969;DHT22;8085;53.472;9.794;2023-12-20T02:35:06;5.00;99.90
15969;DHT22;8085;53.472;9.794;2023-12-20T02:37:33;5.00;99.90
15969;DHT22;8085;53.472;9.794;2023-12-20T02:40:02;5.00;99.90
15969;DHT22;8085;53.472;9.794;2023-12-20T02:42:30;5.00;99.90
15969;DHT22;8085;53.472;9.794;2023-12-20T02:44:56;5.00;99.90
15969;DHT22;8085;53.472;9.794;2023-12-20T02:47:23;5.00;99.90
15969;DHT22;8085;53.472;9.794;2023-12-20T02:49:50;4.90;99.90
15969;DHT22;8085;53.472;9.794;2023-12-20T02:52:18;4.90;99.90
15969;DHT22;8085;53.472;9.794;2023-12-20T02:54:45;5.10;99.90
15969;DHT22;8085;53.472;9.794;2023-12-20T02:57:13;5.00;99.90
15969;DHT22;8085;53.472;9.794;2023-12-20T02:59:40;5.00;99.90
15969;DHT22;8085;53.472;9.794;2023-12-20T03:02:07;5.00;99.90
15969;DHT22;8085;53.472;9.794;2023-12-20T03:04:33;5.00;99.90
15969;DHT22;8085;53.472;9.794;2023-12-20T03:07:00;5.00;99.90
15969;DHT22;8085;53.472;9.794;2023-12-20T03:09:27;5.00;99.90
15969;DHT22;8085;53.472;9.794;2023-12-20T03:11:54;5.00;99.90
15969;DHT22;8085;53.472;9.794;2023-12-20T03:14:22;5.00;99.90
15969;DHT22;8085;53.472;9.794;2023-12-20T03:16:49;5.10;99.90
15969;DHT22;8085;53.472;9.794;2023-12-20T03:19:17;5.10;99.90
15969;DHT22;8085;53.472;9.794;2023-12-20T03:21:44;5.10;99.90
15969;DHT22;8085;53.472;9.794;2023-12-20T03:24:11;5.10;99.90
15969;DHT22;8085;53.472;9.794;2023-12-20T03:26:38;5.10;99.90
15969;DHT22;8085;53.472;9.794;2023-12-20T03:29:04;5.20;99.90
15969;DHT22;8085;53.472;9.794;2023-12-20T03:31:33;5.20;99.90
15969;DHT22;8085;53.472;9.794;2023-12-20T03:34:00;5.30;99.90
15969;DHT22;8085;53.472;9.794;2023-12-20T03:36:26;5.20;99.90
15969;DHT22;8085;53.472;9.794;2023-12-20T03:38:53;5.30;99.90
15969;DHT22;8085;53.472;9.794;2023-12-20T03:41:20;5.30;99.90
15969;DHT22;8085;53.472;9.794;2023-12-20T03:43:47;5.30;99.90
15969;DHT22;8085;53.472;9.794;2023-12-20T03:46:14;5.30;99.90
15969;DHT22;8085;53.472;9.794;2023-12-20T03:48:42;5.30;99.90
15969;DHT22;8085;53.472;9.794;2023-12-20T03:51:09;5.30;99.90
15969;DHT22;8085;53.472;9.794;2023-12-20T03:53:36;5.30;99.90
15969;DHT22;8085;53.472;9.794;2023-12-20T03:56:03;5.30;99.90
15969;DHT22;8085;53.472;9.794;2023-12-20T03:58:30;5.40;99.90
15969;DHT22;8085;53.472;9.794;2023-12-20T04:00:57;5.30;99.90
15969;DHT22;8085;53.472;9.794;2023-12-20T04:03:24;5.50;99.90
15969;DHT22;8085;53.472;9.794;2023-12-20T04:05:52;5.40;99.90
15969;DHT22;8085;53.472;9.794;2023-12-20T04:08:19;5.40;99.90
15969;DHT22;8085;53.472;9.794;2023-12-20T04:10:45;5.40;99.90
15969;DHT22;8085;53.472;9.794;2023-12-20T04:13:13;5.40;99.90
15969;DHT22;8085;53.472;9.794;2023-12-20T04:15:40;5.50;99.90
15969;DHT22;8085;53.472;9.794;2023-12-20T04:18:06;5.50;99.90
15969;DHT22;8085;53.472;9.794;2023-12-20T04:20:33;5.50;99.90
15969;DHT22;8085;53.472;9.794;2023-12-20T04:23:01;5.50;99.90
15969;DHT22;8085;53.472;9.794;2023-12-20T04:25:28;5.60;99.90
15969;DHT22;8085;53.472;9.794;2023-12-20T04:27:55;5.60;99.90
15969;DHT22;8085;53.472;9.794;2023-12-20T04:30:22;5.80;99.90
15969;DHT22;8085;53.472;9.794;2023-12-20T04:32:49;5.70;99.90
15969;DHT22;8085;53.472;9.794;2023-12-20T04:35:16;5.70;99.90
15969;DHT22;8085;53.472;9.794;2023-12-20T04:37:43;5.70;99.90
15969;DHT22;8085;53.472;9.794;2023-12-20T04:40:11;5.70;99.90
15969;DHT22;8085;53.472;9.794;2023-12-20T04:42:40;5.70;99.90
15969;DHT22;8085;53.472;9.794;2023-12-20T04:45:07;5.80;99.90
15969;DHT22;8085;53.472;9.794;2023-12-20T04:47:34;5.80;99.90
15969;DHT22;8085;53.472;9.794;2023-12-20T04:50:01;5.80;99.90
15969;DHT22;8085;53.472;9.794;2023-12-20T04:52:28;5.80;99.90
15969;DHT22;8085;53.472;9.794;2023-12-20T04:54:55;5.90;99.90
15969;DHT22;8085;53.472;9.794;2023-12-20T04:57:23;5.80;99.90
15969;DHT22;8085;53.472;9.794;2023-12-20T04:59:50;5.80;99.90
15969;DHT22;8085;53.472;9.794;2023-12-20T05:02:17;5.90;99.90
15969;DHT22;8085;53.472;9.794;2023-12-20T05:04:44;5.90;99.90
15969;DHT22;8085;53.472;9.794;2023-12-20T05:07:11;5.90;99.90
15969;DHT22;8085;53.472;9.794;2023-12-20T05:09:38;5.90;99.90
15969;DHT22;8085;53.472;9.794;2023-12-20T05:12:05;5.90;99.90
15969;DHT22;8085;53.472;9.794;2023-12-20T05:14:34;5.90;99.90
15969;DHT22;8085;53.472;9.794;2023-12-20T05:17:00;5.90;99.90
15969;DHT22;8085;53.472;9.794;2023-12-20T05:19:28;5.90;99.90
15969;DHT22;8085;53.472;9.794;2023-12-20T05:21:56;6.00;99.90
15969;DHT22;8085;53.472;9.794;2023-12-20T05:24:23;5.90;99.90
15969;DHT22;8085;53.472;9.794;2023-12-20T05:26:49;6.00;99.90
15969;DHT22;8085;53.472;9.794;2023-12-20T05:29:16;6.00;99.90
15969;DHT22;8085;53.472;9.794;2023-12-20T05:31:44;6.10;99.90
15969;DHT22;8085;53.472;9.794;2023-12-20T05:34:11;6.10;99.90
15969;DHT22;8085;53.472;9.794;2023-12-20T05:36:38;6.10;99.90
15969;DHT22;8085;53.472;9.794;2023-12-20T05:39:05;6.10;99.90
15969;DHT22;8085;53.472;9.794;2023-12-20T05:41:33;6.10;99.90
15969;DHT22;8085;53.472;9.794;2023-12-20T05:44:00;6.10;99.90
15969;DHT22;8085;53.472;9.794;2023-12-20T05:46:27;6.10;99.90
15969;DHT22;8085;53.472;9.794;2023-12-20T05:48:55;6.10;99.90
15969;DHT22;8085;53.472;9.794;2023-12-20T05:51:22;6.10;99.90
15969;DHT22;8085;53.472;9.794;2023-12-20T05:53:49;6.10;99.90
15969;DHT22;8085;53.472;9.794;2023-12-20T05:56:16;6.20;99.90
15969;DHT22;8085;53.472;9.794;2023-12-20T05:58:43;6.00;99.90
15969;DHT22;8085;53.472;9.794;2023-12-20T06:01:10;6.00;99.90
15969;DHT22;8085;53.472;9.794;2023-12-20T06:03:41;6.10;99.90
15969;DHT22;8085;53.472;9.794;2023-12-20T06:06:10;6.00;99.90
15969;DHT22;8085;53.472;9.794;2023-12-20T06:08:36;6.10;99.90
15969;DHT22;8085;53.472;9.794;2023-12-20T06:11:03;6.20;99.90
15969;DHT22;8085;53.472;9.794;2023-12-20T06:13:30;6.20;99.90
15969;DHT22;8085;53.472;9.794;2023-12-20T06:15:57;6.20;99.90
15969;DHT22;8085;53.472;9.794;2023-12-20T06:18:24;6.20;99.90
15969;DHT22;8085;53.472;9.794;2023-12-20T06:20:51;6.20;99.90
15969;DHT22;8085;53.472;9.794;2023-12-20T06:23:19;6.20;99.90
15969;DHT22;8085;53.472;9.794;2023-12-20T06:25:46;6.20;99.90
15969;DHT22;8085;53.472;9.794;2023-12-20T06:28:13;6.20;99.90
15969;DHT22;8085;53.472;9.794;2023-12-20T06:30:40;6.20;99.90
15969;DHT22;8085;53.472;9.794;2023-12-20T06:33:07;6.20;99.90
15969;DHT22;8085;53.472;9.794;2023-12-20T06:35:35;6.10;99.90
15969;DHT22;8085;53.472;9.794;2023-12-20T06:38:03;6.10;99.90
15969;DHT22;8085;53.472;9.794;2023-12-20T06:40:31;6.10;99.90
15969;DHT22;8085;53.472;9.794;2023-12-20T06:42:58;6.10;99.90
15969;DHT22;8085;53.472;9.794;2023-12-20T06:45:26;6.10;99.90
15969;DHT22;8085;53.472;9.794;2023-12-20T06:47:52;6.20;99.90
15969;DHT22;8085;53.472;9.794;2023-12-20T06:50:20;6.20;99.90
15969;DHT22;8085;53.472;9.794;2023-12-20T06:52:47;6.20;99.90
15969;DHT22;8085;53.472;9.794;2023-12-20T06:55:14;6.20;99.90
15969;DHT22;8085;53.472;9.794;2023-12-20T06:57:44;6.20;99.90
15969;DHT22;8085;53.472;9.794;2023-12-20T07:00:12;6.20;99.90
15969;DHT22;8085;53.472;9.794;2023-12-20T07:02:39;6.20;99.90
15969;DHT22;8085;53.472;9.794;2023-12-20T07:05:07;6.20;99.90
15969;DHT22;8085;53.472;9.794;2023-12-20T07:07:34;6.20;99.90
15969;DHT22;8085;53.472;9.794;2023-12-20T07:10:00;6.20;99.90
15969;DHT22;8085;53.472;9.794;2023-12-20T07:12:27;6.20;99.90
15969;DHT22;8085;53.472;9.794;2023-12-20T07:14:56;6.20;99.90
15969;DHT22;8085;53.472;9.794;2023-12-20T07:17:23;6.20;99.90
15969;DHT22;8085;53.472;9.794;2023-12-20T07:19:49;6.30;99.90
15969;DHT22;8085;53.472;9.794;2023-12-20T07:22:16;6.30;99.90
15969;DHT22;8085;53.472;9.794;2023-12-20T07:24:43;6.30;99.90
15969;DHT22;8085;53.472;9.794;2023-12-20T07:27:11;6.40;99.90
15969;DHT22;8085;53.472;9.794;2023-12-20T07:29:38;6.40;99.90
15969;DHT22;8085;53.472;9.794;2023-12-20T07:32:07;6.40;99.90
15969;DHT22;8085;53.472;9.794;2023-12-20T07:34:34;6.40;99.90
15969;DHT22;8085;53.472;9.794;2023-12-20T07:37:01;6.40;99.90
15969;DHT22;8085;53.472;9.794;2023-12-20T07:39:28;6.50;99.90
15969;DHT22;8085;53.472;9.794;2023-12-20T07:41:55;6.60;99.90
15969;DHT22;8085;53.472;9.794;2023-12-20T07:44:21;6.50;99.90
15969;DHT22;8085;53.472;9.794;2023-12-20T07:46:48;6.50;99.90
15969;DHT22;8085;53.472;9.794;2023-12-20T07:49:16;6.50;99.90
15969;DHT22;8085;53.472;9.794;2023-12-20T07:51:43;6.50;99.90
15969;DHT22;8085;53.472;9.794;2023-12-20T07:54:10;6.50;99.90
15969;DHT22;8085;53.472;9.794;2023-12-20T07:56:37;6.50;99.90
15969;DHT22;8085;53.472;9.794;2023-12-20T07:59:05;6.50;99.90
15969;DHT22;8085;53.472;9.794;2023-12-20T08:01:32;6.50;99.90
15969;DHT22;8085;53.472;9.794;2023-12-20T08:03:59;6.50;99.90
15969;DHT22;8085;53.472;9.794;2023-12-20T08:06:27;6.50;99.90
15969;DHT22;8085;53.472;9.794;2023-12-20T08:08:54;6.50;99.90
15969;DHT22;8085;53.472;9.794;2023-12-20T08:11:21;6.60;99.90
15969;DHT22;8085;53.472;9.794;2023-12-20T08:13:48;6.60;99.90
15969;DHT22;8085;53.472;9.794;2023-12-20T08:16:15;6.60;99.90
15969;DHT22;8085;53.472;9.794;2023-12-20T08:18:43;6.60;99.90
15969;DHT22;8085;53.472;9.794;2023-12-20T08:21:10;6.60;99.90
15969;DHT22;8085;53.472;9.794;2023-12-20T08:23:38;6.60;99.90
15969;DHT22;8085;53.472;9.794;2023-12-20T08:26:05;6.60;99.90
15969;DHT22;8085;53.472;9.794;2023-12-20T08:28:32;6.70;99.90
15969;DHT22;8085;53.472;9.794;2023-12-20T08:31:01;6.70;99.90
15969;DHT22;8085;53.472;9.794;2023-12-20T08:33:27;6.70;99.90
15969;DHT22;8085;53.472;9.794;2023-12-20T08:35:54;6.70;99.90
15969;DHT22;8085;53.472;9.794;2023-12-20T08:38:21;6.70;99.90
15969;DHT22;8085;53.472;9.794;2023-12-20T08:40:49;6.80;99.90
15969;DHT22;8085;53.472;9.794;2023-12-20T08:43:16;6.80;99.90
15969;DHT22;8085;53.472;9.794;2023-12-20T08:45:44;6.80;99.90
15969;DHT22;8085;53.472;9.794;2023-12-20T08:48:10;6.80;99.90
15969;DHT22;8085;53.472;9.794;2023-12-20T08:50:37;6.80;99.90
15969;DHT22;8085;53.472;9.794;2023-12-20T08:53:04;6.80;99.90
15969;DHT22;8085;53.472;9.794;2023-12-20T08:55:31;6.80;99.90
15969;DHT22;8085;53.472;9.794;2023-12-20T08:57:59;6.70;99.90
15969;DHT22;8085;53.472;9.794;2023-12-20T09:00:26;6.60;99.90
15969;DHT22;8085;53.472;9.794;2023-12-20T09:02:53;6.50;99.90
15969;DHT22;8085;53.472;9.794;2023-12-20T09:05:20;6.50;99.90
15969;DHT22;8085;53.472;9.794;2023-12-20T09:07:48;6.40;99.90
15969;DHT22;8085;53.472;9.794;2023-12-20T09:10:14;6.40;99.90
15969;DHT22;8085;53.472;9.794;2023-12-20T09:12:41;6.30;99.90
15969;DHT22;8085;53.472;9.794;2023-12-20T09:15:09;6.20;99.90
15969;DHT22;8085;53.472;9.794;2023-12-20T09:17:36;6.10;99.90
15969;DHT22;8085;53.472;9.794;2023-12-20T09:20:04;6.10;99.90
15969;DHT22;8085;53.472;9.794;2023-12-20T09:22:32;6.00;99.90
15969;DHT22;8085;53.472;9.794;2023-12-20T09:24:59;5.90;99.90
15969;DHT22;8085;53.472;9.794;2023-12-20T09:27:27;5.90;99.90
15969;DHT22;8085;53.472;9.794;2023-12-20T09:29:54;6.10;99.90
15969;DHT22;8085;53.472;9.794;2023-12-20T09:32:22;5.90;99.90
15969;DHT22;8085;53.472;9.794;2023-12-20T09:34:49;5.80;99.90
15969;DHT22;8085;53.472;9.794;2023-12-20T09:37:16;5.70;99.90
15969;DHT22;8085;53.472;9.794;2023-12-20T09:39:44;5.60;99.90
15969;DHT22;8085;53.472;9.794;2023-12-20T09:42:12;5.60;99.90
15969;DHT22;8085;53.472;9.794;2023-12-20T09:44:42;5.50;99.90
15969;DHT22;8085;53.472;9.794;2023-12-20T09:47:10;5.50;99.90
15969;DHT22;8085;53.472;9.794;2023-12-20T09:49:38;5.40;99.90
15969;DHT22;8085;53.472;9.794;2023-12-20T09:52:07;5.50;99.90
15969;DHT22;8085;53.472;9.794;2023-12-20T09:54:36;5.50;99.90
15969;DHT22;8085;53.472;9.794;2023-12-20T09:57:03;5.50;99.90
15969;DHT22;8085;53.472;9.794;2023-12-20T09:59:30;5.50;99.90
15969;DHT22;8085;53.472;9.794;2023-12-20T10:01:58;5.50;99.90
15969;DHT22;8085;53.472;9.794;2023-12-20T10:04:31;5.40;99.90
15969;DHT22;8085;53.472;9.794;2023-12-20T10:07:03;5.40;99.90
15969;DHT22;8085;53.472;9.794;2023-12-20T10:09:31;5.40;99.90
15969;DHT22;8085;53.472;9.794;2023-12-20T10:11:58;5.30;99.90
15969;DHT22;8085;53.472;9.794;2023-12-20T10:14:25;5.40;99.90
15969;DHT22;8085;53.472;9.794;2023-12-20T10:16:52;5.40;99.90
15969;DHT22;8085;53.472;9.794;2023-12-20T10:19:21;5.30;99.90
15969;DHT22;8085;53.472;9.794;2023-12-20T10:21:47;5.30;99.90
15969;DHT22;8085;53.472;9.794;2023-12-20T10:24:18;5.30;99.90
15969;DHT22;8085;53.472;9.794;2023-12-20T10:26:45;5.30;99.90
15969;DHT22;8085;53.472;9.794;2023-12-20T10:29:11;5.30;99.90
15969;DHT22;8085;53.472;9.794;2023-12-20T10:31:38;5.30;99.90
15969;DHT22;8085;53.472;9.794;2023-12-20T10:34:05;5.20;99.90
15969;DHT22;8085;53.472;9.794;2023-12-20T10:36:33;5.20;99.90
15969;DHT22;8085;53.472;9.794;2023-12-20T10:39:02;5.10;99.90
15969;DHT22;8085;53.472;9.794;2023-12-20T10:41:33;5.10;99.90
15969;DHT22;8085;53.472;9.794;2023-12-20T10:44:02;5.10;99.90
15969;DHT22;8085;53.472;9.794;2023-12-20T10:46:31;5.10;99.90
15969;DHT22;8085;53.472;9.794;2023-12-20T10:48:58;5.10;99.90
15969;DHT22;8085;53.472;9.794;2023-12-20T10:51:25;5.10;99.90
15969;DHT22;8085;53.472;9.794;2023-12-20T10:53:55;5.10;99.90
15969;DHT22;8085;53.472;9.794;2023-12-20T10:56:29;5.10;99.90
15969;DHT22;8085;53.472;9.794;2023-12-20T10:59:01;5.10;99.90
15969;DHT22;8085;53.472;9.794;2023-12-20T11:01:30;5.00;99.90
15969;DHT22;8085;53.472;9.794;2023-12-20T11:03:57;5.10;99.90
15969;DHT22;8085;53.472;9.794;2023-12-20T11:06:35;5.10;99.90
15969;DHT22;8085;53.472;9.794;2023-12-20T11:09:10;5.10;99.90
15969;DHT22;8085;53.472;9.794;2023-12-20T11:11:58;5.20;99.90
15969;DHT22;8085;53.472;9.794;2023-12-20T11:14:31;5.20;99.90
15969;DHT22;8085;53.472;9.794;2023-12-20T11:17:06;5.30;99.90
15969;DHT22;8085;53.472;9.794;2023-12-20T11:19:36;5.30;99.90
15969;DHT22;8085;53.472;9.794;2023-12-20T11:22:04;5.40;99.90
15969;DHT22;8085;53.472;9.794;2023-12-20T11:24:31;5.40;99.90
15969;DHT22;8085;53.472;9.794;2023-12-20T11:27:00;5.40;99.90
15969;DHT22;8085;53.472;9.794;2023-12-20T11:29:33;5.40;99.90
15969;DHT22;8085;53.472;9.794;2023-12-20T11:32:01;5.50;99.90
15969;DHT22;8085;53.472;9.794;2023-12-20T11:34:31;5.60;99.90
15969;DHT22;8085;53.472;9.794;2023-12-20T11:36:59;5.70;99.90
15969;DHT22;8085;53.472;9.794;2023-12-20T11:39:27;5.80;99.90
15969;DHT22;8085;53.472;9.794;2023-12-20T11:41:55;5.90;99.90
15969;DHT22;8085;53.472;9.794;2023-12-20T11:44:25;6.10;99.90
15969;DHT22;8085;53.472;9.794;2023-12-20T11:46:54;6.20;99.90
15969;DHT22;8085;53.472;9.794;2023-12-20T11:49:24;6.00;99.90
15969;DHT22;8085;53.472;9.794;2023-12-20T11:51:51;6.20;99.90
15969;DHT22;8085;53.472;9.794;2023-12-20T11:54:18;6.30;99.90
15969;DHT22;8085;53.472;9.794;2023-12-20T11:56:45;6.40;99.90
15969;DHT22;8085;53.472;9.794;2023-12-20T11:59:12;6.50;99.90
15969;DHT22;8085;53.472;9.794;2023-12-20T12:01:39;6.50;99.90
15969;DHT22;8085;53.472;9.794;2023-12-20T12:04:07;6.30;99.90
15969;DHT22;8085;53.472;9.794;2023-12-20T12:06:35;6.30;99.90
15969;DHT22;8085;53.472;9.794;2023-12-20T12:09:02;6.20;99.90
15969;DHT22;8085;53.472;9.794;2023-12-20T12:11:30;6.20;99.90
15969;DHT22;8085;53.472;9.794;2023-12-20T12:13:57;6.10;99.90
15969;DHT22;8085;53.472;9.794;2023-12-20T12:16:25;6.10;99.90
15969;DHT22;8085;53.472;9.794;2023-12-20T12:18:56;6.10;99.90
15969;DHT22;8085;53.472;9.794;2023-12-20T12:21:24;6.10;99.90
15969;DHT22;8085;53.472;9.794;2023-12-20T12:23:51;6.10;99.90
15969;DHT22;8085;53.472;9.794;2023-12-20T12:26:18;6.10;99.90
15969;DHT22;8085;53.472;9.794;2023-12-20T12:28:45;6.10;99.90
15969;DHT22;8085;53.472;9.794;2023-12-20T12:31:16;6.20;99.90
15969;DHT22;8085;53.472;9.794;2023-12-20T12:33:43;6.30;99.90
15969;DHT22;8085;53.472;9.794;2023-12-20T12:36:10;6.30;99.90
15969;DHT22;8085;53.472;9.794;2023-12-20T12:38:43;6.40;99.90
15969;DHT22;8085;53.472;9.794;2023-12-20T12:41:12;6.50;99.90
15969;DHT22;8085;53.472;9.794;2023-12-20T12:43:39;6.50;99.90
15969;DHT22;8085;53.472;9.794;2023-12-20T12:46:06;6.50;99.90
15969;DHT22;8085;53.472;9.794;2023-12-20T12:48:32;6.60;99.90
15969;DHT22;8085;53.472;9.794;2023-12-20T12:50:59;6.60;99.90
15969;DHT22;8085;53.472;9.794;2023-12-20T12:53:26;6.60;99.90
15969;DHT22;8085;53.472;9.794;2023-12-20T12:55:54;6.60;99.90
15969;DHT22;8085;53.472;9.794;2023-12-20T12:58:21;6.70;99.90
15969;DHT22;8085;53.472;9.794;2023-12-20T13:00:50;6.70;99.90
15969;DHT22;8085;53.472;9.794;2023-12-20T13:03:17;6.70;99.90
15969;DHT22;8085;53.472;9.794;2023-12-20T13:05:44;6.70;99.90
15969;DHT22;8085;53.472;9.794;2023-12-20T13:08:12;6.70;99.90
15969;DHT22;8085;53.472;9.794;2023-12-20T13:10:39;6.70;99.90
15969;DHT22;8085;53.472;9.794;2023-12-20T13:13:07;6.60;99.90
15969;DHT22;8085;53.472;9.794;2023-12-20T13:15:34;6.60;99.90
15969;DHT22;8085;53.472;9.794;2023-12-20T13:18:01;6.60;99.90
15969;DHT22;8085;53.472;9.794;2023-12-20T13:20:30;6.60;99.90
15969;DHT22;8085;53.472;9.794;2023-12-20T13:22:57;6.60;99.90
15969;DHT22;8085;53.472;9.794;2023-12-20T13:25:23;6.60;99.90
15969;DHT22;8085;53.472;9.794;2023-12-20T13:27:50;6.60;99.90
15969;DHT22;8085;53.472;9.794;2023-12-20T13:30:19;6.70;99.90
15969;DHT22;8085;53.472;9.794;2023-12-20T13:32:46;6.70;99.90
15969;DHT22;8085;53.472;9.794;2023-12-20T13:35:12;6.80;99.90
15969;DHT22;8085;53.472;9.794;2023-12-20T13:37:39;6.70;99.90
15969;DHT22;8085;53.472;9.794;2023-12-20T13:40:07;6.70;99.90
15969;DHT22;8085;53.472;9.794;2023-12-20T13:42:34;6.70;99.90
15969;DHT22;8085;53.472;9.794;2023-12-20T13:45:01;6.80;99.90
15969;DHT22;8085;53.472;9.794;2023-12-20T13:47:31;6.80;99.90
15969;DHT22;8085;53.472;9.794;2023-12-20T13:49:58;6.80;99.90
15969;DHT22;8085;53.472;9.794;2023-12-20T13:52:25;6.80;99.90
15969;DHT22;8085;53.472;9.794;2023-12-20T13:54:52;6.80;99.90
15969;DHT22;8085;53.472;9.794;2023-12-20T13:57:19;6.80;99.90
15969;DHT22;8085;53.472;9.794;2023-12-20T13:59:46;6.70;99.90
15969;DHT22;8085;53.472;9.794;2023-12-20T14:02:12;6.70;99.90
15969;DHT22;8085;53.472;9.794;2023-12-20T14:04:42;6.70;99.90
15969;DHT22;8085;53.472;9.794;2023-12-20T14:07:09;6.70;99.90
15969;DHT22;8085;53.472;9.794;2023-12-20T14:09:36;6.70;99.90
15969;DHT22;8085;53.472;9.794;2023-12-20T14:12:04;6.70;99.90
15969;DHT22;8085;53.472;9.794;2023-12-20T14:14:31;6.60;99.90
15969;DHT22;8085;53.472;9.794;2023-12-20T14:16:58;6.50;99.90
15969;DHT22;8085;53.472;9.794;2023-12-20T14:19:25;6.50;99.90
15969;DHT22;8085;53.472;9.794;2023-12-20T14:21:54;6.50;99.90
15969;DHT22;8085;53.472;9.794;2023-12-20T14:24:21;6.50;99.90
15969;DHT22;8085;53.472;9.794;2023-12-20T14:26:47;6.50;99.90
15969;DHT22;8085;53.472;9.794;2023-12-20T14:29:14;6.50;99.90
15969;DHT22;8085;53.472;9.794;2023-12-20T14:31:41;6.40;99.90
15969;DHT22;8085;53.472;9.794;2023-12-20T14:34:08;6.30;99.90
15969;DHT22;8085;53.472;9.794;2023-12-20T14:36:35;6.40;99.90
15969;DHT22;8085;53.472;9.794;2023-12-20T14:39:03;6.30;99.90
15969;DHT22;8085;53.472;9.794;2023-12-20T14:41:31;6.30;99.90
15969;DHT22;8085;53.472;9.794;2023-12-20T14:43:58;6.30;99.90
15969;DHT22;8085;53.472;9.794;2023-12-20T14:46:25;6.30;99.90
15969;DHT22;8085;53.472;9.794;2023-12-20T14:48:52;6.20;99.90
15969;DHT22;8085;53.472;9.794;2023-12-20T14:51:19;6.20;99.90
15969;DHT22;8085;53.472;9.794;2023-12-20T14:53:46;6.10;99.90
15969;DHT22;8085;53.472;9.794;2023-12-20T14:56:14;6.10;99.90
15969;DHT22;8085;53.472;9.794;2023-12-20T14:58:41;6.10;99.90
15969;DHT22;8085;53.472;9.794;2023-12-20T15:01:08;6.00;99.90
15969;DHT22;8085;53.472;9.794;2023-12-20T15:03:35;6.00;99.90
15969;DHT22;8085;53.472;9.794;2023-12-20T15:06:02;6.00;99.90
15969;DHT22;8085;53.472;9.794;2023-12-20T15:08:29;6.00;99.90
15969;DHT22;8085;53.472;9.794;2023-12-20T15:10:56;5.90;99.90
15969;DHT22;8085;53.472;9.794;2023-12-20T15:13:24;6.00;99.90
15969;DHT22;8085;53.472;9.794;2023-12-20T15:15:51;6.10;99.90
15969;DHT22;8085;53.472;9.794;2023-12-20T15:18:18;5.90;99.90
15969;DHT22;8085;53.472;9.794;2023-12-20T15:20:45;5.90;99.90
15969;DHT22;8085;53.472;9.794;2023-12-20T15:23:13;5.90;99.90
15969;DHT22;8085;53.472;9.794;2023-12-20T15:25:40;5.90;99.90
15969;DHT22;8085;53.472;9.794;2023-12-20T15:28:07;5.80;99.90
15969;DHT22;8085;53.472;9.794;2023-12-20T15:30:35;5.80;99.90
15969;DHT22;8085;53.472;9.794;2023-12-20T15:33:02;5.90;99.90
15969;DHT22;8085;53.472;9.794;2023-12-20T15:35:29;5.90;99.90
15969;DHT22;8085;53.472;9.794;2023-12-20T15:37:56;5.80;99.90
15969;DHT22;8085;53.472;9.794;2023-12-20T15:40:24;5.80;99.90
15969;DHT22;8085;53.472;9.794;2023-12-20T15:42:50;5.80;99.90
15969;DHT22;8085;53.472;9.794;2023-12-20T15:45:18;5.80;99.90
15969;DHT22;8085;53.472;9.794;2023-12-20T15:47:46;5.80;99.90
15969;DHT22;8085;53.472;9.794;2023-12-20T15:50:13;5.70;99.90
15969;DHT22;8085;53.472;9.794;2023-12-20T15:52:40;5.70;99.90
15969;DHT22;8085;53.472;9.794;2023-12-20T15:55:08;5.80;99.90
15969;DHT22;8085;53.472;9.794;2023-12-20T15:57:35;5.60;99.90
15969;DHT22;8085;53.472;9.794;2023-12-20T16:00:03;5.60;99.90
15969;DHT22;8085;53.472;9.794;2023-12-20T16:02:31;5.60;99.90